Time;durP1;ratioP1;P1;durP2;ratioP2;P2;SDS_P1;SDS_P2;PMS_P1;PMS_P2;Temp;Humidity;BMP_temperature;BMP_pressure;BME280_temperature;BME280_humidity;BME280_pressure;Samples;Min_cycle;Max_cycle;Signal;HPM_P1;HPM_P2
2021/12/11 00:02:22;;;;;;;;;11.00;9.50;;;;;8.20;58.33;100562.13;5033263;28;45517;-64
2021/12/11 00:04:54;;;;;;;;;5.00;5.00;;;;;8.37;57.28;100594.66;5032508;28;45147;-68
2021/12/11 00:07:20;;;;;;;;;10.00;8.00;;;;;7.93;58.01;100528.44;5033613;28;45032;-62
2021/12/11 00:09:59;;;;;;;;;10.00;8.25;;;;;8.40;57.84;100610.75;5031880;28;45416;-73
2021/12/11 00:12:31;;;;;;;;;30.75;24.25;;;;;8.24;57.53;100596.00;5032064;28;45126;-71
2021/12/11 00:15:07;;;;;;;;;24.50;23.25;;;;;8.36;57.92;100604.38;5032192;28;45014;-68
2021/12/11 00:17:34;;;;;;;;;9.50;7.00;;;;;8.44;57.54;100625.97;5032580;28;44972;-65
2021/12/11 00:20:00;;;;;;;;;7.25;5.00;;;;;8.32;58.16;100618.47;5032935;28;45564;-74
2021/12/11 00:22:30;;;;;;;;;24.75;14.25;;;;;8.09;58.13;100569.78;5044511;28;44986;-65
2021/12/11 00:25:06;;;;;;;;;12.00;8.25;;;;;8.39;57.38;100638.19;5031043;28;45064;-62
2021/12/11 00:27:34;;;;;;;;;4.25;4.25;;;;;8.33;57.57;100633.56;5032528;28;44997;-68
2021/12/11 00:30:03;;;;;;;;;11.00;10.25;;;;;8.41;58.47;100637.38;5027706;28;45486;-68
2021/12/11 00:32:32;;;;;;;;;10.00;9.50;;;;;8.34;58.11;100626.50;5032881;28;44900;-66
2021/12/11 00:35:09;;;;;;;;;9.75;8.00;;;;;8.20;57.60;100599.41;5031902;28;45163;-72
2021/12/11 00:37:35;;;;;;;;;8.00;4.00;;;;;8.45;58.04;100657.09;5033111;28;45035;-67
2021/12/11 00:40:09;;;;;;;;;9.00;6.00;;;;;8.47;58.51;100664.25;5031058;28;46020;-68
2021/12/11 00:42:35;;;;;;;;;4.00;4.00;;;;;8.47;57.51;100656.25;5032654;28;45219;-72
2021/12/11 00:45:10;;;;;;;;;35.50;29.50;;;;;8.49;58.10;100680.28;5030785;28;45140;-66
2021/12/11 00:47:46;;;;;;;;;23.75;21.50;;;;;8.40;58.42;100664.88;5033093;28;45176;-70
2021/12/11 00:50:13;;;;;;;;;17.50;11.50;;;;;8.35;57.41;100646.91;5031738;28;45276;-74
2021/12/11 00:52:43;;;;;;;;;3.75;3.25;;;;;8.49;58.11;100677.63;5032484;28;45028;-69
2021/12/11 00:55:20;;;;;;;;;8.75;7.00;;;;;8.22;57.97;100642.97;5032484;28;45156;-62
2021/12/11 00:57:48;;;;;;;;;6.75;3.50;;;;;8.42;57.93;100686.22;5030551;28;45188;-68
2021/12/11 01:00:22;;;;;;;;;5.00;3.25;;;;;8.16;58.08;100653.38;5031073;28;45906;-66
2021/12/11 01:02:57;;;;;;;;;5.25;2.00;;;;;8.30;58.04;100679.63;5028510;28;45139;-66
2021/12/11 01:05:26;;;;;;;;;2.75;2.75;;;;;8.36;58.15;100696.66;5030190;28;45065;-63
2021/12/11 01:07:53;;;;;;;;;5.00;3.75;;;;;8.33;58.33;100705.44;5028922;28;44996;-74
2021/12/11 01:10:27;;;;;;;;;4.25;2.25;;;;;8.30;57.61;100711.56;5029709;28;45258;-69
2021/12/11 01:13:00;;;;;;;;;4.25;3.00;;;;;8.27;58.62;100706.13;5027837;28;45096;-70
2021/12/11 01:15:33;;;;;;;;;3.25;3.00;;;;;8.33;57.37;100717.84;5028937;28;45223;-67
2021/12/11 01:18:21;;;;;;;;;22.25;19.50;;;;;8.23;58.16;100709.56;5029124;28;45080;-70
2021/12/11 01:21:15;;;;;;;;;3.75;1.25;;;;;8.35;57.94;100730.38;5030936;28;46730;-63
2021/12/11 01:26:14;;;;;;;;;4.00;2.25;;;;;7.98;57.96;100690.91;5030986;28;46731;-71
2021/12/11 01:28:40;;;;;;;;;4.75;3.00;;;;;8.27;57.32;100735.41;5032600;28;44976;-63
2021/12/11 01:31:08;;;;;;;;;14.25;5.50;;;;;8.29;57.88;100738.13;5032022;28;46082;-65
2021/12/11 01:33:35;;;;;;;;;7.00;7.00;;;;;8.36;57.71;100752.56;5032472;28;45059;-72
2021/12/11 01:36:03;;;;;;;;;11.25;9.00;;;;;8.31;58.19;100741.75;5032312;28;45147;-67
2021/12/11 01:38:30;;;;;;;;;5.00;2.00;;;;;8.41;57.76;100758.94;5032101;28;44903;-63
2021/12/11 01:40:59;;;;;;;;;3.00;3.00;;;;;8.34;57.84;100748.94;5032252;28;45841;-72
2021/12/11 01:43:28;;;;;;;;;2.50;2.00;;;;;8.09;57.50;100717.03;5032381;28;45130;-66
2021/12/11 01:45:56;;;;;;;;;3.50;3.50;;;;;8.27;58.01;100764.69;5031540;28;46383;-64
2021/12/11 01:48:32;;;;;;;;;4.00;3.00;;;;;8.17;57.83;100753.69;5032158;28;45045;-70
2021/12/11 01:51:12;;;;;;;;;5.50;5.50;;;;;7.93;58.22;100725.31;5031694;28;45760;-62
2021/12/11 01:53:42;;;;;;;;;2.75;2.00;;;;;7.88;58.31;100702.97;5031674;28;45168;-75
2021/12/11 01:56:18;;;;;;;;;3.25;2.00;;;;;8.36;57.54;100784.50;5031855;28;45112;-62
2021/12/11 01:58:56;;;;;;;;;3.25;3.25;;;;;8.28;58.34;100778.91;5031992;28;44959;-70
2021/12/11 02:01:30;;;;;;;;;3.00;3.00;;;;;8.41;57.41;100788.22;5026817;28;46554;-62
2021/12/11 02:03:58;;;;;;;;;10.50;3.00;;;;;8.43;57.44;100794.53;5031846;28;44903;-68
2021/12/11 02:06:31;;;;;;;;;3.00;2.00;;;;;8.42;58.13;100798.03;5031331;28;45104;-64
2021/12/11 02:08:58;;;;;;;;;3.00;3.00;;;;;8.26;57.79;100773.50;5031520;28;44983;-62
2021/12/11 02:11:27;;;;;;;;;8.00;6.50;;;;;8.34;58.07;100795.09;5029491;28;46998;-65
2021/12/11 02:14:03;;;;;;;;;9.25;3.75;;;;;8.07;57.47;100749.78;5031679;28;45042;-66
2021/12/11 02:16:42;;;;;;;;;7.25;1.75;;;;;8.36;58.65;100825.34;5031068;28;45219;-65
2021/12/11 02:19:18;;;;;;;;;3.75;2.25;;;;;8.35;57.80;100823.53;5032172;28;45120;-62
2021/12/11 02:21:46;;;;;;;;;1.00;1.00;;;;;8.35;58.57;100833.25;5031381;28;45247;-65
2021/12/11 02:24:16;;;;;;;;;6.75;2.00;;;;;8.30;57.77;100822.47;5030361;28;45031;-69
2021/12/11 02:26:42;;;;;;;;;4.75;2.00;;;;;8.31;58.03;100842.91;5012710;28;45134;-63
2021/12/11 02:29:11;;;;;;;;;2.25;2.25;;;;;8.17;57.50;100814.88;5015536;28;45079;-63
2021/12/11 02:31:45;;;;;;;;;2.75;2.50;;;;;8.35;58.29;100839.50;5014763;28;45485;-65
2021/12/11 02:34:25;;;;;;;;;5.50;3.50;;;;;8.35;58.15;100846.56;5014729;28;45009;-64
2021/12/11 02:37:16;;;;;;;;;4.25;2.00;;;;;8.32;58.17;100846.47;5014887;28;45100;-67
2021/12/11 02:39:45;;;;;;;;;3.00;2.25;;;;;8.31;57.70;100845.56;5016076;28;45111;-71
2021/12/11 02:42:23;;;;;;;;;1.25;1.00;;;;;8.30;58.19;100847.31;5026713;28;45374;-73
2021/12/11 02:45:17;;;;;;;;;6.50;3.50;;;;;7.90;58.43;100778.38;5035121;28;45081;-69
2021/12/11 02:47:52;;;;;;;;;1.00;1.00;;;;;8.33;58.74;100858.91;5032852;28;45122;-62
2021/12/11 02:50:29;;;;;;;;;3.00;1.50;;;;;8.12;57.87;100826.25;5035821;28;45463;-74
2021/12/11 02:53:08;;;;;;;;;2.00;2.00;;;;;8.33;57.71;100865.16;5032816;28;47406;-70
2021/12/11 02:55:36;;;;;;;;;4.00;3.50;;;;;8.34;58.25;100858.97;5034043;28;45127;-66
2021/12/11 02:58:16;;;;;;;;;4.50;3.25;;;;;8.11;57.93;100827.09;5035008;28;44975;-65
2021/12/11 03:00:47;;;;;;;;;4.50;2.25;;;;;8.32;58.79;100860.69;5034235;28;45171;-66
2021/12/11 03:03:15;;;;;;;;;2.50;2.50;;;;;8.38;57.95;100874.25;5019257;28;46467;-65
2021/12/11 03:05:49;;;;;;;;;4.00;2.75;;;;;8.39;58.76;100877.78;5026168;28;44992;-65
2021/12/11 03:08:20;;;;;;;;;5.50;3.50;;;;;8.24;58.03;100855.06;5034183;28;45123;-72
2021/12/11 03:10:51;;;;;;;;;3.25;2.75;;;;;8.38;57.74;100886.63;5030743;28;45473;-73
2021/12/11 03:13:16;;;;;;;;;2.00;2.00;;;;;8.27;58.06;100864.94;5034949;28;45628;-63
2021/12/11 03:15:42;;;;;;;;;2.50;2.50;;;;;8.37;57.52;100890.16;5033362;28;45076;-64
2021/12/11 03:18:08;;;;;;;;;3.75;2.50;;;;;8.34;58.26;100898.00;5050172;28;45084;-64
2021/12/11 03:20:37;;;;;;;;;4.00;2.75;;;;;8.36;57.61;100902.53;5034647;28;45189;-65
2021/12/11 03:23:04;;;;;;;;;1.75;1.75;;;;;8.27;58.54;100897.78;5033416;28;46104;-69
2021/12/11 03:25:30;;;;;;;;;3.00;3.00;;;;;8.32;58.00;100918.34;5034598;28;45267;-62
2021/12/11 03:27:57;;;;;;;;;3.00;2.00;;;;;8.28;58.37;100912.91;5034052;28;45056;-69
2021/12/11 03:30:27;;;;;;;;;4.25;2.00;;;;;8.36;58.72;100925.59;5033335;28;45110;-71
2021/12/11 03:32:57;;;;;;;;;3.00;2.00;;;;;8.31;58.57;100930.75;5033691;28;45534;-69
2021/12/11 03:35:26;;;;;;;;;3.75;1.75;;;;;8.28;58.30;100935.94;5046845;28;45325;-66
2021/12/11 03:37:52;;;;;;;;;3.50;3.50;;;;;8.27;58.13;100944.78;5031825;28;44907;-71
2021/12/11 03:40:19;;;;;;;;;15.25;8.75;;;;;8.15;58.67;100921.28;5034214;28;45026;-72
2021/12/11 03:42:46;;;;;;;;;3.75;2.00;;;;;8.28;58.40;100939.53;5033887;28;45456;-70
2021/12/11 03:45:16;;;;;;;;;4.50;2.00;;;;;8.27;58.60;100937.69;5034239;28;45136;-70
2021/12/11 03:47:48;;;;;;;;;2.75;2.50;;;;;8.05;59.05;100904.03;5034021;28;44981;-67
2021/12/11 03:50:17;;;;;;;;;7.00;4.00;;;;;8.19;58.71;100938.25;5034502;28;45026;-73
2021/12/11 03:52:45;;;;;;;;;4.25;2.50;;;;;8.24;58.49;100956.22;5033616;28;46966;-73
2021/12/11 03:55:12;;;;;;;;;2.50;2.50;;;;;8.07;58.00;100938.69;5033871;28;44904;-63
2021/12/11 03:57:39;;;;;;;;;6.50;1.50;;;;;8.21;58.67;100966.72;5034229;28;45255;-63
2021/12/11 04:00:10;;;;;;;;;3.25;1.00;;;;;8.12;58.91;100953.09;5033656;28;45017;-73
2021/12/11 04:02:36;;;;;;;;;2.00;2.00;;;;;7.97;59.15;100925.84;5033218;28;46417;-70
2021/12/11 04:05:06;;;;;;;;;4.00;3.00;;;;;7.84;58.32;100904.09;5031281;28;45472;-68
2021/12/11 04:07:39;;;;;;;;;3.00;3.00;;;;;8.01;58.17;100927.81;5032025;28;44984;-64
2021/12/11 04:10:07;;;;;;;;;7.00;5.00;;;;;8.24;58.20;100964.19;5032715;28;45146;-73
2021/12/11 04:12:32;;;;;;;;;3.50;3.50;;;;;8.11;59.18;100960.13;5033712;28;45455;-72
2021/12/11 04:14:57;;;;;;;;;4.25;3.00;;;;;7.94;58.62;100943.50;5015837;28;44925;-67
2021/12/11 04:17:26;;;;;;;;;5.50;3.00;;;;;8.03;58.51;100963.34;5013951;28;45017;-73
2021/12/11 04:19:58;;;;;;;;;2.25;2.00;;;;;7.78;58.94;100933.09;5016947;28;45288;-66
2021/12/11 04:22:25;;;;;;;;;10.25;5.50;;;;;7.52;58.70;100887.75;5033961;28;45129;-70
2021/12/11 04:24:51;;;;;;;;;8.00;8.00;;;;;7.97;59.48;100979.06;5033786;28;45361;-72
2021/12/11 04:27:19;;;;;;;;;3.25;3.25;;;;;7.80;59.64;100952.69;5033810;28;45242;-72
2021/12/11 04:29:48;;;;;;;;;3.00;3.00;;;;;7.93;59.64;100981.59;5027876;28;45276;-68
2021/12/11 04:32:13;;;;;;;;;7.50;4.00;;;;;7.68;59.76;100944.22;5028993;28;47248;-73
2021/12/11 04:34:39;;;;;;;;;2.50;1.00;;;;;7.89;59.71;100989.41;5014516;28;44890;-70
2021/12/11 04:37:16;;;;;;;;;4.00;4.00;;;;;7.77;59.48;100963.22;5022816;28;44991;-64
2021/12/11 04:39:46;;;;;;;;;2.75;2.75;;;;;7.91;59.56;100993.94;5033155;28;45069;-73
2021/12/11 04:43:04;;;;;;;;;2.25;2.25;;;;;7.82;59.55;100987.31;5032205;28;45281;-64
2021/12/11 04:45:13;;;;;;;;;3.00;3.00;;;;;8.02;59.27;101013.00;5029090;28;45221;-74
2021/12/11 04:47:46;;;;;;;;;2.00;2.00;;;;;7.91;59.29;100993.03;5032341;28;45220;-69
2021/12/11 04:50:26;;;;;;;;;8.00;3.00;;;;;7.86;59.10;100987.50;5032222;28;45218;-69
2021/12/11 05:06:17;;;;;;;;;4.50;3.00;;;;;8.07;58.65;101024.75;5032599;28;45052;-72
2021/12/11 05:11:37;;;;;;;;;8.50;3.00;;;;;8.01;59.16;101015.59;5032329;28;44997;-74
2021/12/11 05:14:03;;;;;;;;;8.75;6.50;;;;;7.51;58.55;100936.44;5032072;28;46630;-73
2021/12/11 05:16:29;;;;;;;;;6.75;5.25;;;;;7.90;59.28;101018.75;5031887;28;44938;-69
2021/12/11 05:18:54;;;;;;;;;4.00;4.00;;;;;7.92;59.69;101026.78;5032895;28;45109;-68
2021/12/11 05:21:20;;;;;;;;;7.00;7.00;;;;;7.88;59.21;101020.41;5032664;28;45252;-72
2021/12/11 05:23:48;;;;;;;;;7.75;7.00;;;;;7.83;59.35;101035.25;5032316;28;45597;-68
2021/12/11 05:26:14;;;;;;;;;5.00;5.00;;;;;7.76;59.48;101038.53;5032165;28;45048;-71
2021/12/11 05:28:39;;;;;;;;;4.75;2.00;;;;;7.56;60.06;101011.97;5031060;28;45168;-68
2021/12/11 05:31:08;;;;;;;;;7.00;5.25;;;;;7.68;59.64;101045.25;5032916;28;45065;-72
2021/12/11 05:33:34;;;;;;;;;8.25;7.25;;;;;7.76;60.48;101054.47;5033507;28;45971;-73
2021/12/11 05:36:00;;;;;;;;;4.50;3.00;;;;;7.44;60.10;101005.22;5032519;28;45233;-73
2021/12/11 05:38:26;;;;;;;;;3.00;3.00;;;;;7.82;59.60;101067.13;5033649;28;45218;-71
2021/12/11 05:40:55;;;;;;;;;6.25;4.00;;;;;7.59;60.23;101036.88;5033627;28;44984;-69
2021/12/11 05:43:21;;;;;;;;;4.25;3.00;;;;;7.66;60.26;101036.31;5032312;28;45621;-70
2021/12/11 05:45:47;;;;;;;;;5.25;3.25;;;;;7.88;59.85;101084.25;5032489;28;44922;-73
2021/12/11 05:48:14;;;;;;;;;1.00;1.00;;;;;7.89;60.15;101091.41;5032721;28;45043;-64
2021/12/11 05:50:46;;;;;;;;;4.00;2.50;;;;;7.90;59.76;101092.28;5032157;28;45205;-72
2021/12/11 05:53:13;;;;;;;;;3.00;2.00;;;;;7.71;59.57;101067.56;5032262;28;45524;-71
2021/12/11 05:55:40;;;;;;;;;3.75;2.75;;;;;7.67;59.83;101067.38;5032471;28;45090;-73
2021/12/11 05:58:11;;;;;;;;;4.75;4.50;;;;;7.83;59.61;101098.22;5048029;28;45032;-73
2021/12/11 06:00:46;;;;;;;;;5.75;4.00;;;;;7.93;59.94;101116.38;5032635;28;44910;-67
2021/12/11 06:03:13;;;;;;;;;10.00;7.25;;;;;7.81;60.24;101108.78;5035755;28;47651;-65
2021/12/11 06:05:39;;;;;;;;;6.50;2.50;;;;;7.81;60.27;101114.09;5051015;28;44935;-73
2021/12/11 06:08:06;;;;;;;;;5.25;3.25;;;;;8.01;59.61;101130.03;5035898;28;45092;-65
2021/12/11 06:10:31;;;;;;;;;2.00;1.00;;;;;7.93;60.18;101137.66;5036071;28;45059;-74
2021/12/11 06:12:59;;;;;;;;;6.50;3.50;;;;;7.70;60.11;101110.97;5035585;28;45069;-64
2021/12/11 06:15:25;;;;;;;;;7.25;2.00;;;;;7.81;60.62;101135.38;5034662;28;45057;-67
2021/12/11 06:17:51;;;;;;;;;3.00;3.00;;;;;7.66;60.32;101119.66;5036207;28;44941;-69
2021/12/11 06:20:19;;;;;;;;;2.50;2.50;;;;;7.74;60.54;101138.63;5035230;28;45072;-67
2021/12/11 06:22:46;;;;;;;;;4.00;1.75;;;;;7.69;60.27;101138.41;5033358;28;45545;-65
2021/12/11 06:25:18;;;;;;;;;3.00;1.25;;;;;7.66;60.89;101143.59;5033740;28;45020;-65
2021/12/11 06:27:44;;;;;;;;;1.00;1.00;;;;;7.57;60.93;101144.09;5033896;28;45123;-71
2021/12/11 06:30:10;;;;;;;;;4.00;3.25;;;;;7.53;61.18;101150.09;5034032;28;45101;-71
2021/12/11 06:32:37;;;;;;;;;14.00;11.25;;;;;7.28;61.22;101112.63;5033899;28;45656;-67
2021/12/11 06:35:11;;;;;;;;;5.75;5.25;;;;;7.48;61.58;101154.31;5033312;28;45131;-71
2021/12/11 06:37:37;;;;;;;;;2.50;2.50;;;;;7.26;60.98;101119.59;5034305;28;44947;-65
2021/12/11 06:40:04;;;;;;;;;11.50;3.00;;;;;7.46;61.64;101155.09;5023953;28;45156;-66
2021/12/11 06:42:29;;;;;;;;;2.75;2.75;;;;;7.28;61.83;101136.56;5049270;28;46377;-71
2021/12/11 06:44:55;;;;;;;;;6.75;2.00;;;;;7.28;61.64;101145.44;5034390;28;45009;-70
2021/12/11 06:47:20;;;;;;;;;1.50;1.25;;;;;7.00;61.60;101098.97;5034641;28;45173;-72
2021/12/11 06:49:45;;;;;;;;;1.00;1.00;;;;;7.41;61.85;101184.13;5035034;28;45209;-68
2021/12/11 06:52:17;;;;;;;;;3.25;2.00;;;;;7.38;61.46;101192.84;5034665;28;45663;-65
2021/12/11 06:54:43;;;;;;;;;2.50;2.50;;;;;7.24;61.91;101175.34;5034141;28;45143;-64
2021/12/11 06:57:08;;;;;;;;;1.75;1.75;;;;;7.11;61.40;101160.59;5033164;28;45397;-71
2021/12/11 06:59:34;;;;;;;;;3.50;2.50;;;;;7.25;62.01;101182.50;5034529;28;45179;-64
2021/12/11 07:01:59;;;;;;;;;3.50;3.00;;;;;7.16;61.62;101171.41;5049270;28;47534;-74
2021/12/11 07:04:25;;;;;;;;;4.50;1.50;;;;;7.38;62.12;101213.22;5033798;28;45135;-69
2021/12/11 07:06:53;;;;;;;;;1.50;1.50;;;;;7.35;62.11;101219.28;5020896;28;45135;-63
2021/12/11 07:09:21;;;;;;;;;6.00;2.75;;;;;7.36;62.17;101221.13;5029788;28;45066;-62
2021/12/11 07:11:48;;;;;;;;;4.75;4.00;;;;;7.39;61.76;101223.00;5014273;28;45752;-64
2021/12/11 07:14:16;;;;;;;;;4.00;3.00;;;;;7.43;61.71;101235.59;5022859;28;45190;-66
2021/12/11 07:16:42;;;;;;;;;4.50;3.25;;;;;7.47;61.63;101234.00;5033955;28;45268;-63
2021/12/11 07:19:09;;;;;;;;;3.00;2.00;;;;;7.29;61.72;101224.34;5033910;28;44867;-65
2021/12/11 07:21:35;;;;;;;;;5.50;4.00;;;;;7.51;61.39;101251.94;5032714;28;45999;-66
2021/12/11 07:24:02;;;;;;;;;3.50;3.50;;;;;7.51;61.57;101258.16;5032286;28;45155;-74
2021/12/11 07:26:34;;;;;;;;;7.25;5.75;;;;;7.53;61.97;101258.22;5032115;28;45101;-64
2021/12/11 07:29:10;;;;;;;;;3.00;3.00;;;;;7.52;61.40;101249.34;5033570;28;45322;-68
2021/12/11 07:31:36;;;;;;;;;4.25;3.75;;;;;7.54;62.12;101260.94;5030020;28;45622;-65
2021/12/11 07:34:03;;;;;;;;;6.75;5.75;;;;;7.32;61.67;101220.91;5032436;28;45160;-71
2021/12/11 07:36:29;;;;;;;;;4.75;3.00;;;;;7.55;61.43;101259.19;5026332;28;45512;-67
2021/12/11 07:38:55;;;;;;;;;7.25;4.00;;;;;6.98;61.71;101160.88;5030922;28;45445;-62
2021/12/11 07:41:22;;;;;;;;;7.25;3.25;;;;;7.60;61.47;101265.63;5028646;28;45149;-64
2021/12/11 07:43:49;;;;;;;;;12.00;6.75;;;;;7.52;61.87;101248.41;5030325;28;45009;-64
2021/12/11 07:46:19;;;;;;;;;2.25;2.00;;;;;7.64;61.13;101269.34;5030321;28;45079;-64
2021/12/11 07:48:46;;;;;;;;;2.25;2.25;;;;;7.70;61.27;101286.47;5030875;28;45061;-70
2021/12/11 07:51:13;;;;;;;;;4.25;3.50;;;;;7.68;61.65;101288.16;5030875;28;45040;-67
2021/12/11 07:53:38;;;;;;;;;11.25;7.75;;;;;7.66;61.76;101295.19;5030127;28;45284;-68
2021/12/11 07:56:04;;;;;;;;;3.50;3.00;;;;;7.54;61.43;101282.22;5031161;28;45365;-63
2021/12/11 07:58:32;;;;;;;;;3.50;1.25;;;;;7.63;61.95;101303.00;5030506;28;45139;-67
2021/12/11 08:00:58;;;;;;;;;4.00;3.25;;;;;7.41;61.69;101268.25;5030140;28;45120;-64
2021/12/11 08:03:24;;;;;;;;;9.00;4.00;;;;;7.64;61.63;101299.53;5030710;28;45439;-69
2021/12/11 08:05:52;;;;;;;;;4.50;3.50;;;;;7.62;61.40;101294.97;5030093;28;44986;-64
2021/12/11 08:08:18;;;;;;;;;5.00;2.00;;;;;7.60;61.27;101305.53;5030587;28;45128;-63
2021/12/11 08:10:46;;;;;;;;;7.75;4.00;;;;;7.77;61.75;101326.69;5025740;28;45962;-71
2021/12/11 08:13:13;;;;;;;;;5.00;4.25;;;;;7.61;61.32;101307.34;5025361;28;45004;-67
2021/12/11 08:15:40;;;;;;;;;4.50;2.25;;;;;7.75;61.22;101331.94;5031521;28;45099;-68
2021/12/11 08:18:08;;;;;;;;;7.50;4.00;;;;;7.73;61.76;101346.91;5030197;28;45203;-61
2021/12/11 08:20:35;;;;;;;;;2.00;2.00;;;;;7.66;61.44;101348.38;5030187;28;45093;-68
2021/12/11 08:23:00;;;;;;;;;6.00;4.00;;;;;7.59;61.71;101355.97;5029218;28;45261;-68
2021/12/11 08:25:28;;;;;;;;;3.50;3.50;;;;;7.39;61.67;101353.25;5029137;28;45369;-65
2021/12/11 08:27:55;;;;;;;;;4.50;3.00;;;;;7.52;61.91;101349.44;5029072;28;45392;-63
2021/12/11 08:30:22;;;;;;;;;7.25;3.25;;;;;7.54;62.16;101356.66;5029841;28;45482;-63
2021/12/11 08:32:48;;;;;;;;;7.75;5.50;;;;;7.57;62.17;101356.81;5029890;28;45499;-64
2021/12/11 08:35:14;;;;;;;;;4.50;3.00;;;;;7.60;61.35;101356.03;5020576;28;45200;-69
2021/12/11 08:37:44;;;;;;;;;3.50;3.00;;;;;7.64;61.86;101358.03;5031180;28;45314;-63
2021/12/11 08:40:14;;;;;;;;;3.50;2.00;;;;;7.68;62.07;101367.06;5030586;28;45474;-66
2021/12/11 08:42:40;;;;;;;;;4.75;1.75;;;;;7.72;61.93;101369.00;5030326;28;45336;-63
2021/12/11 08:45:11;;;;;;;;;4.50;3.25;;;;;7.39;61.45;101289.44;5019573;28;45100;-68
2021/12/11 08:47:40;;;;;;;;;2.50;2.25;;;;;7.75;61.56;101346.16;5020055;28;45294;-63
2021/12/11 08:50:21;;;;;;;;;7.00;6.25;;;;;7.87;61.06;101359.13;5029649;28;45167;-68
2021/12/11 08:52:50;;;;;;;;;4.75;3.00;;;;;7.96;60.97;101358.63;5030454;28;45191;-65
2021/12/11 08:55:29;;;;;;;;;3.00;2.00;;;;;8.03;60.29;101370.47;5028946;28;44995;-63
2021/12/11 08:57:58;;;;;;;;;3.25;3.00;;;;;8.05;60.12;101376.75;5030736;28;45206;-63
2021/12/11 09:00:41;;;;;;;;;5.00;3.75;;;;;8.11;60.63;101375.31;5031470;28;45647;-69
2021/12/11 09:03:12;;;;;;;;;6.50;1.00;;;;;8.09;60.04;101365.44;5028378;28;45194;-66
2021/12/11 09:05:56;;;;;;;;;6.50;3.00;;;;;8.32;59.97;101378.91;5023282;28;45438;-65
2021/12/11 09:08:34;;;;;;;;;2.50;2.50;;;;;8.39;60.13;101379.22;5011562;28;45319;-67
2021/12/11 09:11:11;;;;;;;;;8.50;3.25;;;;;8.46;59.15;101380.44;5011239;28;45582;-67
2021/12/11 09:13:53;;;;;;;;;5.50;3.00;;;;;8.54;59.49;101383.47;5010957;28;44957;-64
2021/12/11 09:16:42;;;;;;;;;5.00;3.75;;;;;8.60;58.40;101387.31;5008960;28;45297;-63
2021/12/11 09:19:14;;;;;;;;;3.75;3.00;;;;;8.69;58.39;101396.56;5008730;28;45341;-68
2021/12/11 09:21:40;;;;;;;;;3.75;3.75;;;;;8.76;58.75;101406.63;5022403;28;47877;-66
2021/12/11 09:24:23;;;;;;;;;4.25;3.25;;;;;8.84;57.79;101400.81;5007146;28;45040;-64
2021/12/11 09:27:06;;;;;;;;;4.00;4.00;;;;;8.74;57.97;101385.25;5009344;28;45372;-64
2021/12/11 09:29:38;;;;;;;;;3.25;3.25;;;;;8.89;58.29;101421.41;5008902;28;45085;-65
2021/12/11 09:32:26;;;;;;;;;6.25;5.00;;;;;8.91;58.07;101428.66;5008487;28;45174;-67
2021/12/11 09:35:21;;;;;;;;;7.25;4.25;;;;;8.54;57.81;101370.16;5008260;28;45212;-69
2021/12/11 09:37:49;;;;;;;;;1.25;1.25;;;;;8.89;56.97;101432.97;5007041;28;45347;-64
2021/12/11 09:40:41;;;;;;;;;2.00;2.00;;;;;8.86;57.16;101430.19;5009664;28;44862;-63
2021/12/11 09:43:06;;;;;;;;;4.00;4.00;;;;;8.90;56.81;101444.56;5005634;28;45341;-65
2021/12/11 09:45:40;;;;;;;;;30.00;22.50;;;;;8.93;57.17;101452.69;5007705;28;63458;-63
2021/12/11 09:48:11;;;;;;;;;10.00;7.25;;;;;8.88;57.37;101448.94;5005971;28;45382;-69
2021/12/11 09:50:47;;;;;;;;;4.00;3.00;;;;;8.84;57.92;101447.84;5008925;28;45545;-62
2021/12/11 09:53:17;;;;;;;;;7.00;3.00;;;;;8.85;57.46;101453.25;5008846;28;45641;-65
2021/12/11 09:55:44;;;;;;;;;7.25;3.00;;;;;8.87;57.00;101453.31;5008587;28;45210;-64
2021/12/11 09:58:16;;;;;;;;;9.50;4.50;;;;;8.91;56.67;101463.28;5008902;28;45018;-64
2021/12/11 10:00:47;;;;;;;;;4.50;3.25;;;;;8.87;57.28;101463.06;5006688;28;45045;-65
2021/12/11 10:03:16;;;;;;;;;3.75;3.75;;;;;8.93;57.23;101464.25;5005530;28;45427;-64
2021/12/11 10:05:49;;;;;;;;;9.50;6.00;;;;;8.98;57.79;101473.38;5007865;28;45362;-63
2021/12/11 10:08:28;;;;;;;;;11.00;10.00;;;;;8.90;57.50;101453.47;5009201;28;45168;-65
2021/12/11 10:11:21;;;;;;;;;5.00;4.75;;;;;8.88;57.27;101462.25;5008691;28;45177;-65
2021/12/11 10:13:52;;;;;;;;;9.25;5.00;;;;;9.13;56.55;101483.78;5007640;28;45771;-69
2021/12/11 10:16:23;;;;;;;;;6.25;2.50;;;;;8.77;56.63;101404.03;5007920;28;45002;-66
2021/12/11 10:18:49;;;;;;;;;9.50;7.75;;;;;9.10;56.91;101450.78;5007719;28;45100;-71
2021/12/11 10:21:32;;;;;;;;;6.25;6.25;;;;;8.88;56.27;101403.63;5008693;28;44907;-64
2021/12/11 10:24:01;;;;;;;;;7.50;4.00;;;;;9.25;57.05;101467.41;5007789;28;45661;-63
2021/12/11 10:26:28;;;;;;;;;8.50;5.00;;;;;9.34;56.26;101467.81;5007723;28;45224;-64
2021/12/11 10:28:58;;;;;;;;;9.00;5.50;;;;;9.29;56.60;101460.47;5023847;28;45065;-68
2021/12/11 10:31:33;;;;;;;;;5.50;3.00;;;;;9.38;56.49;101480.44;5008212;28;45504;-69
2021/12/11 10:34:04;;;;;;;;;7.75;5.00;;;;;9.14;55.98;101420.72;5008682;28;45227;-67
2021/12/11 10:36:33;;;;;;;;;5.00;5.00;;;;;9.47;55.76;101484.34;5008297;28;45285;-65
2021/12/11 10:39:02;;;;;;;;;8.50;6.25;;;;;9.22;56.54;101429.94;5007702;28;45279;-68
2021/12/11 10:41:30;;;;;;;;;11.75;8.25;;;;;9.43;55.90;101477.97;5008450;28;44970;-65
2021/12/11 10:44:06;;;;;;;;;9.00;4.00;;;;;9.46;55.91;101479.88;5009996;28;45150;-68
2021/12/11 10:46:40;;;;;;;;;11.25;9.75;;;;;9.24;56.15;101438.97;5028223;28;44993;-70
2021/12/11 10:49:10;;;;;;;;;13.75;8.00;;;;;9.36;56.25;101452.78;5031099;28;45257;-70
2021/12/11 10:51:41;;;;;;;;;8.50;5.00;;;;;9.26;55.64;101434.59;5031807;28;45086;-68
2021/12/11 10:54:08;;;;;;;;;12.50;11.75;;;;;9.50;55.52;101466.72;5031060;28;45605;-69
2021/12/11 10:56:33;;;;;;;;;15.75;9.50;;;;;9.65;55.68;101493.16;5031394;28;45431;-65
2021/12/11 10:59:09;;;;;;;;;15.50;10.25;;;;;9.59;55.83;101474.19;5030261;28;45740;-69
2021/12/11 11:02:04;;;;;;;;;8.50;7.75;;;;;9.66;55.36;101481.59;5029979;28;45211;-65
2021/12/11 11:04:37;;;;;;;;;20.00;11.00;;;;;9.64;55.94;101477.06;5009985;28;45914;-72
2021/12/11 11:07:03;;;;;;;;;6.00;6.00;;;;;9.72;55.84;101489.88;5015386;28;45533;-66
2021/12/11 11:09:29;;;;;;;;;10.50;7.00;;;;;9.81;56.24;101489.34;5016205;28;45367;-69
2021/12/11 11:11:59;;;;;;;;;10.00;6.75;;;;;9.74;54.73;101476.59;5015802;28;45513;-68
2021/12/11 11:14:25;;;;;;;;;12.25;8.00;;;;;9.96;55.77;101498.00;5015092;28;46597;-71
2021/12/11 11:16:56;;;;;;;;;6.00;5.50;;;;;10.01;55.34;101499.94;5024694;28;45163;-65
2021/12/11 11:19:25;;;;;;;;;9.25;7.00;;;;;9.96;54.45;101481.03;5021439;28;45633;-71
2021/12/11 11:21:58;;;;;;;;;5.50;5.00;;;;;10.00;54.34;101472.34;5016700;28;45615;-67
2021/12/11 11:24:34;;;;;;;;;6.50;6.00;;;;;10.17;54.54;101481.00;5015394;28;47058;-67
2021/12/11 11:27:03;;;;;;;;;10.75;6.50;;;;;10.25;54.06;101487.56;5018388;28;45473;-67
2021/12/11 11:29:29;;;;;;;;;8.50;6.00;;;;;10.25;54.01;101486.66;5015978;28;45483;-67
2021/12/11 11:32:02;;;;;;;;;14.75;10.50;;;;;10.00;54.06;101421.59;5015727;28;45571;-70
2021/12/11 11:34:31;;;;;;;;;11.00;6.25;;;;;10.32;54.11;101483.41;5015812;28;47718;-69
2021/12/11 11:36:59;;;;;;;;;5.75;5.00;;;;;10.31;54.08;101481.53;5015650;28;45397;-70
2021/12/11 11:39:26;;;;;;;;;11.00;10.00;;;;;10.38;53.70;101491.66;5015822;28;45406;-66
2021/12/11 11:41:59;;;;;;;;;14.00;12.50;;;;;10.35;53.55;101498.66;5014559;28;45283;-68
2021/12/11 11:44:27;;;;;;;;;14.00;14.00;;;;;10.33;53.84;101490.59;5016380;28;46103;-68
2021/12/11 11:46:55;;;;;;;;;12.75;10.25;;;;;10.37;53.99;101499.63;5014799;28;45623;-69
2021/12/11 11:49:21;;;;;;;;;12.25;11.00;;;;;10.37;54.38;101497.84;5015038;28;45337;-71
2021/12/11 11:51:57;;;;;;;;;17.75;9.75;;;;;10.37;53.64;101502.28;5014922;28;45586;-69
2021/12/11 11:54:25;;;;;;;;;15.25;10.75;;;;;9.63;53.90;101379.19;5012792;28;45542;-69
2021/12/11 11:57:04;;;;;;;;;12.25;7.25;;;;;10.41;54.00;101512.22;5011422;28;45442;-70
2021/12/11 11:59:29;;;;;;;;;15.00;10.00;;;;;10.38;54.39;101512.09;5017292;28;45606;-68
2021/12/11 12:02:01;;;;;;;;;13.00;9.25;;;;;10.39;54.43;101511.25;5016363;28;45580;-68
2021/12/11 12:04:29;;;;;;;;;10.50;6.75;;;;;10.15;53.94;101469.38;5017602;28;46864;-70
2021/12/11 12:06:59;;;;;;;;;9.75;8.50;;;;;10.33;54.24;101499.50;5014566;28;45600;-71